Wetterdaten: aktuell Mittwoch, 01.02.2023 09:58
Datum Zeit Temp. A. Feuchte A. Luftdruck Regen Wind Richtung Richtung Taupunkt Windchill
01.02.2023 09:58 4,9 C 85 % 1019,0 hPa 0,0 l/m 0,0 km/h (0 Bft) NO 45 2,6 C 4,9 C
01.02.2023 09:28 4,9 C 85 % 1018,9 hPa 0,0 l/m 3,2 km/h (1 Bft) O-NO 67 2,6 C 4,9 C
01.02.2023 08:58 4,9 C 86 % 1018,8 hPa 0,0 l/m 3,6 km/h (1 Bft) S 180 2,8 C 4,9 C
01.02.2023 08:28 4,8 C 86 % 1018,4 hPa 0,0 l/m 5,4 km/h (1 Bft) S 180 2,7 C 4,8 C
01.02.2023 07:58 4,8 C 86 % 1018,2 hPa 0,0 l/m 1,4 km/h (1 Bft) O-NO 67 2,7 C 4,8 C
01.02.2023 07:28 4,7 C 87 % 1018,2 hPa 0,0 l/m 1,1 km/h (1 Bft) SO 135 2,7 C 4,7 C
01.02.2023 06:58 4,4 C 88 % 1018,2 hPa 0,0 l/m 5,0 km/h (1 Bft) O 90 2,6 C 4,4 C
01.02.2023 06:28 4,5 C 88 % 1018,0 hPa 0,0 l/m 4,0 km/h (1 Bft) SO 135 2,7 C 4,5 C
01.02.2023 05:58 4,4 C 88 % 1018,0 hPa 0,0 l/m 4,3 km/h (1 Bft) SO 135 2,6 C 4,4 C
01.02.2023 05:28 4,6 C 88 % 1018,3 hPa 0,0 l/m 0,0 km/h (0 Bft) S 180 2,8 C 4,6 C
01.02.2023 04:58 4,6 C 88 % 1018,3 hPa 0,0 l/m 0,0 km/h (0 Bft) O-NO 67 2,8 C 4,6 C
01.02.2023 04:28 4,8 C 88 % 1018,3 hPa 0,0 l/m 0,0 km/h (0 Bft) O-SO 112 3,0 C 4,8 C
01.02.2023 03:58 4,9 C 89 % 1018,6 hPa 0,0 l/m 5,8 km/h (2 Bft) S 180 3,2 C 4,9 C
01.02.2023 03:28 5,3 C 90 % 1018,7 hPa 0,0 l/m 4,3 km/h (1 Bft) S 180 3,8 C 5,3 C
01.02.2023 02:58 5,3 C 91 % 1018,9 hPa 0,0 l/m 0,0 km/h (0 Bft) S 180 4,0 C 5,3 C
01.02.2023 02:28 5,1 C 91 % 1018,9 hPa 0,0 l/m 8,6 km/h (2 Bft) S 180 3,8 C 3,2 C
01.02.2023 01:58 5,2 C 91 % 1019,2 hPa 0,0 l/m 0,0 km/h (0 Bft) S 180 3,9 C 5,2 C
01.02.2023 01:28 4,9 C 91 % 1019,2 hPa 0,0 l/m 2,2 km/h (1 Bft) S-SO 157 3,6 C 4,9 C
01.02.2023 00:58 4,4 C 91 % 1019,3 hPa 0,5 l/m 0,0 km/h (0 Bft) N-NO 22 3,1 C 4,4 C
01.02.2023 00:28 4,3 C 90 % 1019,3 hPa 0,0 l/m 0,0 km/h (0 Bft) O 90 2,8 C 4,3 C
31.01.2023 23:58 4,1 C 90 % 1019,6 hPa 0,0 l/m 0,0 km/h (0 Bft) S-SO 157 2,6 C 4,1 C
31.01.2023 23:28 4,2 C 90 % 1020,2 hPa 0,0 l/m 0,0 km/h (0 Bft) N-NO 22 2,7 C 4,2 C
31.01.2023 22:58 4,7 C 90 % 1020,2 hPa 0,0 l/m 4,3 km/h (1 Bft) S 180 3,2 C 4,7 C
31.01.2023 22:28 5,5 C 91 % 1020,7 hPa 0,5 l/m 0,0 km/h (0 Bft) S 180 4,2 C 5,5 C
31.01.2023 21:58 5,6 C 91 % 1020,1 hPa 0,0 l/m 0,0 km/h (0 Bft) S 180 4,2 C 5,6 C
31.01.2023 21:28 5,6 C 91 % 1020,2 hPa 0,0 l/m 0,0 km/h (0 Bft) O-NO 67 4,2 C 5,6 C
31.01.2023 20:58 5,6 C 91 % 1020,0 hPa 0,0 l/m 7,2 km/h (2 Bft) S 180 4,2 C 4,9 C
31.01.2023 20:28 5,8 C 91 % 1020,0 hPa 0,0 l/m 0,0 km/h (0 Bft) SO 135 4,4 C 5,8 C
31.01.2023 19:58 5,6 C 91 % 1020,0 hPa 0,0 l/m 0,0 km/h (0 Bft) O 90 4,2 C 5,6 C
31.01.2023 19:28 5,6 C 91 % 1020,3 hPa 0,0 l/m 0,0 km/h (0 Bft) O 90 4,2 C 5,6 C
31.01.2023 18:58 5,5 C 91 % 1020,5 hPa 0,0 l/m 0,0 km/h (0 Bft) S 180 4,2 C 5,5 C
31.01.2023 18:28 5,4 C 91 % 1020,3 hPa 0,5 l/m 0,0 km/h (0 Bft) O-NO 67 4,1 C 5,4 C
31.01.2023 17:58 5,2 C 91 % 1020,1 hPa 0,5 l/m 4,0 km/h (1 Bft) O-SO 112 3,9 C 5,2 C
31.01.2023 17:28 4,9 C 91 % 1020,0 hPa 0,0 l/m 0,0 km/h (0 Bft) O 90 3,6 C 4,9 C
31.01.2023 16:58 4,6 C 91 % 1019,7 hPa 0,5 l/m 0,0 km/h (0 Bft) SO 135 3,3 C 4,6 C
31.01.2023 16:28 4,4 C 91 % 1019,6 hPa 0,0 l/m 2,5 km/h (1 Bft) S-SO 157 3,1 C 4,4 C
31.01.2023 15:58 3,9 C 90 % 1019,6 hPa 0,5 l/m 0,0 km/h (0 Bft) SO 135 2,4 C 3,9 C
31.01.2023 15:28 3,7 C 90 % 1019,6 hPa 0,0 l/m 0,0 km/h (0 Bft) S 180 2,2 C 3,7 C
31.01.2023 14:58 3,5 C 90 % 1019,7 hPa 0,5 l/m 2,9 km/h (1 Bft) S-SO 157 2,0 C 3,5 C
31.01.2023 14:28 3,4 C 89 % 1019,6 hPa 0,0 l/m 7,2 km/h (2 Bft) S 180 1,8 C 2,7 C
31.01.2023 13:58 3,6 C 89 % 1020,1 hPa 0,0 l/m 0,0 km/h (0 Bft) S-SO 157 2,0 C 3,6 C
31.01.2023 13:28 3,9 C 89 % 1020,0 hPa 0,0 l/m 2,9 km/h (1 Bft) SO 135 2,3 C 3,9 C
31.01.2023 12:58 3,9 C 88 % 1020,4 hPa 0,0 l/m 6,1 km/h (2 Bft) S-SO 157 2,1 C 3,9 C
31.01.2023 12:28 3,9 C 87 % 1021,2 hPa 0,0 l/m 0,0 km/h (0 Bft) S 180 1,9 C 3,9 C
31.01.2023 11:58 3,9 C 86 % 1021,8 hPa 0,0 l/m 0,0 km/h (0 Bft) S 180 1,8 C 3,9 C
31.01.2023 11:28 4,0 C 85 % 1022,1 hPa 0,0 l/m 6,5 km/h (2 Bft) S-SO 157 1,7 C 3,9 C
31.01.2023 10:58 4,1 C 85 % 1022,3 hPa 0,0 l/m 0,0 km/h (0 Bft) N-NO 22 1,8 C 4,1 C
31.01.2023 10:28 3,9 C 85 % 1022,6 hPa 0,0 l/m 8,3 km/h (2 Bft) S-SO 157 1,6 C 2,2 C
_ Min-Zeit 14:28 10:28 05:58 - 10:58 - - 10:28 10:28
Minimum _ 3,4 C 85 % 1018,0 hPa - 0,0 km/h (0 Bft) - - 1,6 C 2,2 C
_ Max-Zeit 20:28 16:28 10:28 14:58 02:28 - - 20:28 20:28
Maximum _ 5,8 C 91 % 1022,6 hPa 0,5 l/m 8,6 km/h
S (2 Bft)
- - 4,4 C 5,8 C
Durchschnitt _ 4,6 C 89 % 1019,8 hPa #3,6 l/m 2,5 km/h (1 Bft) S - 2,9 C 4,4 C